createdAt,value
2022-12-08T00:01:22.866Z,17.67
2022-12-08T00:03:50.884Z,19.55
2022-12-08T00:06:47.716Z,16.77
2022-12-08T00:09:22.879Z,20.90
2022-12-08T00:12:00.434Z,19.87
2022-12-08T00:14:40.596Z,15.13
2022-12-08T00:17:10.082Z,14.98
2022-12-08T00:19:39.270Z,16.75
2022-12-08T00:22:07.570Z,19.40
2022-12-08T00:24:39.472Z,16.77
2022-12-08T00:27:08.411Z,18.15
2022-12-08T00:29:35.412Z,21.58
2022-12-08T00:32:02.539Z,20.40
2022-12-08T00:34:31.004Z,17.37
2022-12-08T00:36:58.072Z,15.82
2022-12-08T00:39:25.036Z,15.80
2022-12-08T00:42:11.460Z,17.55
2022-12-08T00:44:39.687Z,16.27
2022-12-08T00:47:07.020Z,14.95
2022-12-08T00:49:33.990Z,17.95
2022-12-08T00:52:01.230Z,14.13
2022-12-08T00:54:28.544Z,18.25
2022-12-08T00:56:55.591Z,15.07
2022-12-08T00:59:22.586Z,17.85
2022-12-08T01:01:49.975Z,17.85
2022-12-08T01:04:18.878Z,16.27
2022-12-08T01:06:46.619Z,14.60
2022-12-08T01:09:15.195Z,14.05
2022-12-08T01:11:42.231Z,16.50
2022-12-08T01:14:09.210Z,16.00
2022-12-08T01:16:37.225Z,19.17
2022-12-08T01:19:04.730Z,18.12
2022-12-08T01:21:31.757Z,16.83
2022-12-08T01:24:02.887Z,13.45
2022-12-08T01:26:29.931Z,16.35
2022-12-08T01:28:56.950Z,16.90
2022-12-08T01:31:24.406Z,17.08
2022-12-08T01:33:51.563Z,16.02
2022-12-08T01:36:27.439Z,19.70
2022-12-08T01:38:58.044Z,18.65
2022-12-08T01:41:31.075Z,19.15
2022-12-08T01:44:04.045Z,15.80
2022-12-08T01:46:33.044Z,18.05
2022-12-08T01:49:15.668Z,17.40
2022-12-08T01:51:49.349Z,21.45
2022-12-08T01:54:17.176Z,20.10
2022-12-08T01:57:11.670Z,21.30
2022-12-08T01:59:44.632Z,20.52
2022-12-08T02:02:12.514Z,23.23
2022-12-08T02:04:39.936Z,15.70
2022-12-08T02:07:10.045Z,20.05
2022-12-08T02:09:38.386Z,17.17
2022-12-08T02:12:05.982Z,17.52
2022-12-08T02:14:34.571Z,19.45
2022-12-08T02:17:39.184Z,18.90
2022-12-08T02:20:30.104Z,18.75
2022-12-08T02:23:11.983Z,14.90
2022-12-08T02:25:51.889Z,18.87
2022-12-08T02:28:56.445Z,20.15
2022-12-08T02:31:35.679Z,19.23
2022-12-08T02:34:09.086Z,17.83
2022-12-08T02:36:39.114Z,17.92
2022-12-08T02:39:25.133Z,18.70
2022-12-08T02:42:06.073Z,18.60
2022-12-08T02:44:48.779Z,13.80
2022-12-08T02:47:19.289Z,19.50
2022-12-08T02:49:46.439Z,20.75
2022-12-08T02:52:13.365Z,20.05
2022-12-08T02:54:45.717Z,17.70
2022-12-08T02:57:33.731Z,16.45
2022-12-08T03:00:13.356Z,17.12
2022-12-08T03:03:05.250Z,22.23
2022-12-08T03:05:35.251Z,19.52
2022-12-08T03:08:31.333Z,22.00
2022-12-08T03:11:08.860Z,15.93
2022-12-08T03:13:46.378Z,17.37
2022-12-08T03:16:18.602Z,16.15
2022-12-08T03:18:50.838Z,19.98
2022-12-08T03:21:20.569Z,19.37
2022-12-08T03:23:51.883Z,16.27
2022-12-08T03:26:28.989Z,18.67
2022-12-08T03:28:56.732Z,19.67
2022-12-08T03:31:27.975Z,20.67
2022-12-08T03:33:58.507Z,25.55
2022-12-08T03:36:26.162Z,27.08
2022-12-08T03:38:54.383Z,26.05
2022-12-08T03:41:24.711Z,32.72
2022-12-08T03:43:59.480Z,27.30
2022-12-08T03:48:55.671Z,31.10
2022-12-08T03:51:23.338Z,31.62
2022-12-08T03:53:51.148Z,27.40
2022-12-08T03:56:26.298Z,28.08
2022-12-08T03:58:54.418Z,25.15
2022-12-08T04:01:22.771Z,23.95
2022-12-08T04:03:50.449Z,20.35
2022-12-08T04:06:18.312Z,29.17
2022-12-08T04:08:45.417Z,32.80
2022-12-08T04:11:12.730Z,24.80
2022-12-08T04:13:41.075Z,25.77
2022-12-08T04:16:09.045Z,26.48
2022-12-08T04:18:36.351Z,27.62
2022-12-08T04:21:03.486Z,23.02
2022-12-08T04:23:30.519Z,31.55
2022-12-08T04:25:57.813Z,22.87
2022-12-08T04:28:24.833Z,25.20
2022-12-08T04:30:51.952Z,18.62
2022-12-08T04:33:19.229Z,22.83
2022-12-08T04:35:46.291Z,21.77
2022-12-08T04:38:14.041Z,24.33
2022-12-08T04:40:41.301Z,22.05
2022-12-08T04:43:08.390Z,20.02
2022-12-08T04:45:35.652Z,20.37
2022-12-08T04:48:04.648Z,20.37
2022-12-08T04:50:31.796Z,19.10
2022-12-08T04:52:58.834Z,16.92
2022-12-08T04:55:26.111Z,22.50
2022-12-08T04:57:53.168Z,18.17
2022-12-08T05:00:20.229Z,22.30
2022-12-08T05:02:47.678Z,23.48
2022-12-08T05:05:14.854Z,21.08
2022-12-08T05:07:42.121Z,19.65
2022-12-08T05:10:09.827Z,20.52
2022-12-08T05:12:36.830Z,19.67
2022-12-08T05:15:04.203Z,22.27
2022-12-08T05:17:31.463Z,22.55
2022-12-08T05:19:58.447Z,22.73
2022-12-08T05:22:25.488Z,21.95
2022-12-08T05:24:52.747Z,24.63
2022-12-08T05:27:19.726Z,27.45
2022-12-08T05:29:48.133Z,23.25
2022-12-08T05:32:15.421Z,26.05
2022-12-08T05:34:42.627Z,29.37
2022-12-08T05:37:09.801Z,29.58
2022-12-08T05:39:37.256Z,27.65
2022-12-08T05:42:04.463Z,28.52
2022-12-08T05:44:31.491Z,28.50
2022-12-08T05:46:58.782Z,28.30
2022-12-08T05:49:26.103Z,34.22
2022-12-08T05:51:53.100Z,28.05
2022-12-08T05:54:20.454Z,29.17
2022-12-08T05:56:47.478Z,31.75
2022-12-08T05:59:14.489Z,33.63
2022-12-08T06:01:42.614Z,28.90
2022-12-08T06:04:10.231Z,27.85
2022-12-08T06:06:38.542Z,37.22
2022-12-08T06:09:06.506Z,31.52
2022-12-08T06:11:33.949Z,31.67
2022-12-08T06:14:01.394Z,31.17
2022-12-08T06:16:29.100Z,33.53
2022-12-08T06:18:57.154Z,29.85
2022-12-08T06:21:24.984Z,25.90
2022-12-08T06:23:54.150Z,33.63
2022-12-08T06:26:22.491Z,37.03
2022-12-08T06:28:50.066Z,31.45
2022-12-08T06:31:20.035Z,24.58
2022-12-08T06:33:47.407Z,29.12
2022-12-08T06:36:16.308Z,28.67
2022-12-08T06:38:44.142Z,29.75
2022-12-08T06:41:12.781Z,28.08
2022-12-08T06:43:41.180Z,29.80
2022-12-08T06:46:10.775Z,30.23
2022-12-08T06:48:38.323Z,27.75
2022-12-08T06:51:13.483Z,29.65
2022-12-08T06:53:41.293Z,29.90
2022-12-08T06:56:09.442Z,29.73
2022-12-08T06:58:36.938Z,30.35
2022-12-08T07:01:06.614Z,30.08
2022-12-08T07:03:33.931Z,27.75
2022-12-08T07:06:04.207Z,44.03
2022-12-08T07:08:33.837Z,27.20
2022-12-08T07:11:08.647Z,35.08
2022-12-08T07:13:36.120Z,31.83
2022-12-08T07:16:08.077Z,31.73
2022-12-08T07:18:36.024Z,30.35
2022-12-08T07:21:06.272Z,29.85
2022-12-08T07:23:33.732Z,33.03
2022-12-08T07:26:02.815Z,27.80
2022-12-08T07:28:34.637Z,26.52
2022-12-08T07:31:02.553Z,30.25
2022-12-08T07:33:29.775Z,33.75
2022-12-08T07:35:58.532Z,31.73
2022-12-08T07:38:26.550Z,30.75
2022-12-08T07:40:54.441Z,28.87
2022-12-08T07:43:22.658Z,33.10
2022-12-08T07:45:50.533Z,26.75
2022-12-08T07:48:17.657Z,26.70
2022-12-08T07:50:45.897Z,36.90
2022-12-08T07:53:15.049Z,31.73
2022-12-08T07:55:43.051Z,29.50
2022-12-08T07:58:11.319Z,24.58
2022-12-08T08:00:38.642Z,32.13
2022-12-08T08:03:06.355Z,30.55
2022-12-08T08:05:33.441Z,28.30
2022-12-08T08:08:00.530Z,30.12
2022-12-08T08:10:28.111Z,39.15
2022-12-08T08:12:58.125Z,33.13
2022-12-08T08:15:25.674Z,27.17
2022-12-08T08:17:53.336Z,30.15
2022-12-08T08:20:21.466Z,31.10
2022-12-08T08:22:50.631Z,31.42
2022-12-08T08:25:19.175Z,30.15
2022-12-08T08:27:46.938Z,33.17
2022-12-08T08:30:19.881Z,32.28
2022-12-08T08:32:48.712Z,29.52
2022-12-08T08:35:16.697Z,32.25
2022-12-08T08:37:48.591Z,27.95
2022-12-08T08:40:18.314Z,31.67
2022-12-08T08:42:45.400Z,29.23
2022-12-08T08:45:12.446Z,35.78
2022-12-08T08:47:39.711Z,32.45
2022-12-08T08:50:08.028Z,27.67
2022-12-08T08:52:35.212Z,26.73
2022-12-08T08:55:02.489Z,29.77
2022-12-08T08:57:29.474Z,25.40
2022-12-08T08:59:56.471Z,25.10
2022-12-08T09:02:23.985Z,24.83
2022-12-08T09:04:51.063Z,28.42
2022-12-08T09:07:18.151Z,24.67
2022-12-08T09:09:45.443Z,19.98
2022-12-08T09:12:13.447Z,22.35
2022-12-08T09:14:40.466Z,22.33
2022-12-08T09:17:08.619Z,29.60
2022-12-08T09:19:35.637Z,19.90
2022-12-08T09:22:04.008Z,23.23
2022-12-08T09:24:31.336Z,28.58
2022-12-08T09:26:58.340Z,27.35
2022-12-08T09:29:26.216Z,24.08
2022-12-08T09:31:56.504Z,33.30
2022-12-08T09:34:24.407Z,28.20
2022-12-08T09:36:51.409Z,26.70
2022-12-08T09:39:18.740Z,24.92
2022-12-08T09:41:50.269Z,22.75
2022-12-08T09:44:38.959Z,21.23
2022-12-08T09:47:18.543Z,24.33
2022-12-08T09:49:53.182Z,22.48
2022-12-08T09:52:41.447Z,23.90
2022-12-08T09:55:19.325Z,23.70
2022-12-08T09:57:57.792Z,19.35
2022-12-08T10:00:24.900Z,22.98
2022-12-08T10:02:52.574Z,26.37
2022-12-08T10:05:21.430Z,27.40
2022-12-08T10:07:59.495Z,26.27
2022-12-08T10:10:42.334Z,24.35
2022-12-08T10:13:38.610Z,22.52
2022-12-08T10:16:28.023Z,26.33
2022-12-08T10:19:19.696Z,25.55
2022-12-08T10:21:47.549Z,34.47
2022-12-08T10:24:34.629Z,27.27
2022-12-08T10:27:02.460Z,24.85
2022-12-08T10:29:29.772Z,26.60
2022-12-08T10:31:59.858Z,28.95
2022-12-08T10:34:27.363Z,27.58
2022-12-08T10:37:00.592Z,25.92
2022-12-08T10:39:43.936Z,24.73
2022-12-08T10:42:14.202Z,25.90
2022-12-08T10:45:02.299Z,28.05
2022-12-08T10:47:35.038Z,23.35
2022-12-08T10:50:10.144Z,22.50
2022-12-08T10:52:40.736Z,21.92
2022-12-08T10:55:19.587Z,25.90
2022-12-08T10:57:49.066Z,26.60
2022-12-08T11:00:20.117Z,21.15
2022-12-08T11:02:53.403Z,23.67
2022-12-08T11:05:22.637Z,28.98
2022-12-08T11:07:54.987Z,23.65
2022-12-08T11:10:32.366Z,22.98
2022-12-08T11:13:05.952Z,25.40
2022-12-08T11:15:39.960Z,23.65
2022-12-08T11:18:10.496Z,23.83
2022-12-08T11:20:41.441Z,23.30
2022-12-08T11:23:26.439Z,21.67
2022-12-08T11:25:58.840Z,29.52
2022-12-08T11:28:25.979Z,21.87
2022-12-08T11:31:00.687Z,25.88
2022-12-08T11:33:29.008Z,23.17
2022-12-08T11:36:02.370Z,25.62
2022-12-08T11:38:31.214Z,24.87
2022-12-08T11:41:15.786Z,22.20
2022-12-08T11:44:05.603Z,19.27
2022-12-08T11:46:57.019Z,20.12
2022-12-08T11:49:34.451Z,18.30
2022-12-08T11:52:13.282Z,22.25
2022-12-08T11:54:46.687Z,20.52
2022-12-08T11:57:20.818Z,21.95
2022-12-08T11:59:54.604Z,20.92
2022-12-08T12:02:26.660Z,18.23
2022-12-08T12:05:05.338Z,19.62
2022-12-08T12:07:44.295Z,21.00
2022-12-08T12:10:20.416Z,23.55
2022-12-08T12:13:09.270Z,21.70
2022-12-08T12:16:10.581Z,22.40
2022-12-08T12:19:09.909Z,22.10
2022-12-08T12:21:43.453Z,22.73
2022-12-08T12:24:35.964Z,21.08
2022-12-08T12:27:15.807Z,19.48
2022-12-08T12:29:56.594Z,21.23
2022-12-08T12:34:57.179Z,20.15
2022-12-08T12:37:42.616Z,24.12
2022-12-08T12:40:20.339Z,24.00
2022-12-08T12:43:10.448Z,23.67
2022-12-08T12:45:43.484Z,19.75
2022-12-08T12:48:22.507Z,24.33
2022-12-08T12:50:51.019Z,26.10
2022-12-08T12:53:18.924Z,19.00
2022-12-08T12:55:46.065Z,21.45
2022-12-08T12:58:27.523Z,17.33
2022-12-08T13:01:10.182Z,19.92
2022-12-08T13:03:41.774Z,21.95
2022-12-08T13:06:15.016Z,24.85
2022-12-08T13:08:51.470Z,17.98
2022-12-08T13:11:19.124Z,20.98
2022-12-08T13:13:57.457Z,25.40
2022-12-08T13:16:31.134Z,20.52
2022-12-08T13:19:03.742Z,18.00
2022-12-08T13:21:34.954Z,19.40
2022-12-08T13:24:13.530Z,21.35
2022-12-08T13:26:47.983Z,17.90
2022-12-08T13:29:24.672Z,20.45
2022-12-08T13:31:52.299Z,20.88
2022-12-08T13:34:45.268Z,22.33
2022-12-08T13:37:13.263Z,18.55
2022-12-08T13:39:40.177Z,20.20
2022-12-08T13:42:13.359Z,19.70
2022-12-08T13:45:39.763Z,22.45
2022-12-08T13:48:35.341Z,21.83
2022-12-08T13:57:26.559Z,23.52
2022-12-08T13:59:53.618Z,23.33
2022-12-08T14:02:30.734Z,24.75
2022-12-08T14:07:48.367Z,28.65
2022-12-08T14:10:23.393Z,22.02
2022-12-08T14:13:02.980Z,22.92
2022-12-08T14:15:37.631Z,25.33
2022-12-08T14:18:07.400Z,29.80
2022-12-08T14:20:57.682Z,25.00
2022-12-08T14:23:22.691Z,26.23
2022-12-08T14:25:50.099Z,22.98
2022-12-08T14:28:17.286Z,22.98
2022-12-08T14:30:44.670Z,20.52
2022-12-08T14:33:15.355Z,20.88
2022-12-08T14:35:42.507Z,24.80
2022-12-08T14:38:15.336Z,22.30
2022-12-08T14:40:44.908Z,20.98
2022-12-08T14:43:18.626Z,18.40
2022-12-08T14:45:45.851Z,22.85
2022-12-08T14:48:27.956Z,17.45
2022-12-08T14:51:07.033Z,22.25
2022-12-08T14:53:39.719Z,21.15
2022-12-08T14:56:16.331Z,19.12
2022-12-08T14:58:43.676Z,22.02
2022-12-08T15:01:16.938Z,19.23
2022-12-08T15:03:50.756Z,20.95
2022-12-08T15:06:21.376Z,26.02
2022-12-08T15:08:58.831Z,26.90
2022-12-08T15:11:33.434Z,23.12
2022-12-08T15:16:36.909Z,19.48
2022-12-08T15:19:28.321Z,24.08
2022-12-08T15:21:58.248Z,22.08
2022-12-08T15:24:29.704Z,24.83
2022-12-08T15:26:57.159Z,22.05
2022-12-08T15:29:29.429Z,21.58
2022-12-08T15:32:00.024Z,20.55
2022-12-08T15:34:27.261Z,23.62
2022-12-08T15:36:55.087Z,21.33
2022-12-08T15:39:48.766Z,26.62
2022-12-08T15:42:15.853Z,20.73
2022-12-08T15:44:43.445Z,20.45
2022-12-08T15:47:21.631Z,21.02
2022-12-08T15:49:50.573Z,20.85
2022-12-08T15:52:20.342Z,23.30
2022-12-08T15:54:49.058Z,25.00
2022-12-08T15:57:53.492Z,23.85
2022-12-08T16:03:59.734Z,23.25
2022-12-08T16:09:12.183Z,26.70
2022-12-08T16:12:08.357Z,29.73
2022-12-08T16:17:25.182Z,25.65
2022-12-08T16:19:52.437Z,19.25
2022-12-08T16:25:19.194Z,18.55
2022-12-08T16:30:37.419Z,16.55
2022-12-08T16:33:05.021Z,20.58
2022-12-08T16:35:32.261Z,18.77
2022-12-08T16:37:59.623Z,16.05
2022-12-08T16:40:26.619Z,17.60
2022-12-08T16:42:53.614Z,27.52
2022-12-08T16:45:21.004Z,22.75
2022-12-08T16:47:56.252Z,20.30
2022-12-08T16:50:29.343Z,22.20
2022-12-08T16:53:00.203Z,19.92
2022-12-08T16:55:27.971Z,22.35
2022-12-08T16:57:55.402Z,21.25
2022-12-08T17:00:24.891Z,22.85
2022-12-08T17:02:52.816Z,27.17
2022-12-08T17:05:23.091Z,18.75
2022-12-08T17:07:51.597Z,15.73
2022-12-08T17:10:23.079Z,20.15
2022-12-08T17:12:50.488Z,25.55
2022-12-08T17:15:20.232Z,21.37
2022-12-08T17:17:47.678Z,16.23
2022-12-08T17:20:17.826Z,17.55
2022-12-08T17:22:45.230Z,18.92
2022-12-08T17:25:12.638Z,17.58
2022-12-08T17:27:40.617Z,13.60
2022-12-08T17:30:09.858Z,19.25
2022-12-08T17:32:39.988Z,18.52
2022-12-08T17:35:07.733Z,15.13
2022-12-08T17:37:35.488Z,16.55
2022-12-08T17:40:03.171Z,16.83
2022-12-08T17:42:30.394Z,16.65
2022-12-08T17:44:57.397Z,15.93
2022-12-08T17:47:24.757Z,14.23
2022-12-08T17:49:51.917Z,14.70
2022-12-08T17:52:18.916Z,15.10
2022-12-08T17:54:46.230Z,17.33
2022-12-08T17:57:13.273Z,21.20
2022-12-08T17:59:40.327Z,28.50
2022-12-08T18:02:10.807Z,34.70
2022-12-08T18:04:38.214Z,46.35
2022-12-08T18:07:05.316Z,36.97
2022-12-08T18:09:33.696Z,23.55
2022-12-08T18:12:01.072Z,31.60
2022-12-08T18:14:28.221Z,65.40
2022-12-08T18:16:55.430Z,47.45
2022-12-08T18:19:22.983Z,33.75
2022-12-08T18:21:50.049Z,25.52
2022-12-08T18:24:22.036Z,18.45
2022-12-08T18:26:52.158Z,20.95
2022-12-08T18:29:21.029Z,23.90
2022-12-08T18:31:48.453Z,21.23
2022-12-08T18:34:15.826Z,24.58
2022-12-08T18:36:42.815Z,19.30
2022-12-08T18:39:24.601Z,22.02
2022-12-08T18:41:52.775Z,15.77
2022-12-08T18:44:20.169Z,17.85
2022-12-08T18:46:47.328Z,16.35
2022-12-08T18:49:16.995Z,23.08
2022-12-08T18:51:44.512Z,21.20
2022-12-08T18:54:13.113Z,20.12
2022-12-08T18:56:40.766Z,23.62
2022-12-08T18:59:10.942Z,23.58
2022-12-08T19:01:39.869Z,21.52
2022-12-08T19:06:56.683Z,22.13
2022-12-08T19:09:26.600Z,15.68
2022-12-08T19:11:54.055Z,18.85
2022-12-08T19:14:27.930Z,21.33
2022-12-08T19:16:57.605Z,21.00
2022-12-08T19:19:25.837Z,19.40
2022-12-08T19:21:52.861Z,22.92
2022-12-08T19:24:20.503Z,23.98
2022-12-08T19:26:47.572Z,27.70
2022-12-08T19:29:14.703Z,23.20
2022-12-08T19:31:42.360Z,25.95
2022-12-08T19:34:11.880Z,28.42
2022-12-08T19:36:42.559Z,27.20
2022-12-08T19:39:40.404Z,26.60
2022-12-08T19:42:34.069Z,22.40
2022-12-08T19:45:06.977Z,21.87
2022-12-08T19:47:34.292Z,24.83
2022-12-08T19:50:20.125Z,23.67
2022-12-08T19:52:47.245Z,23.62
2022-12-08T19:55:14.701Z,20.35
2022-12-08T19:57:41.718Z,22.40
2022-12-08T20:00:10.850Z,22.90
2022-12-08T20:02:38.898Z,29.65
2022-12-08T20:05:06.864Z,26.83
2022-12-08T20:07:34.477Z,22.83
2022-12-08T20:10:07.131Z,30.52
2022-12-08T20:12:34.261Z,26.30
2022-12-08T20:15:01.625Z,26.85
2022-12-08T20:17:28.656Z,22.70
2022-12-08T20:19:55.722Z,28.58
2022-12-08T20:22:23.029Z,24.90
2022-12-08T20:24:58.253Z,21.80
2022-12-08T20:27:26.075Z,17.80
2022-12-08T20:29:53.097Z,24.40
2022-12-08T20:32:20.199Z,25.58
2022-12-08T20:34:47.534Z,27.10
2022-12-08T20:37:14.621Z,21.50
2022-12-08T20:39:41.654Z,22.73
2022-12-08T20:42:13.085Z,28.62
2022-12-08T20:44:44.242Z,24.70
2022-12-08T20:47:13.165Z,22.77
2022-12-08T20:49:40.336Z,26.73
2022-12-08T20:52:08.046Z,23.40
2022-12-08T20:54:37.075Z,25.52
2022-12-08T20:57:04.387Z,25.45
2022-12-08T20:59:31.571Z,27.23
2022-12-08T21:02:00.410Z,26.08
2022-12-08T21:04:28.062Z,26.85
2022-12-08T21:06:55.421Z,28.10
2022-12-08T21:09:22.909Z,30.40
2022-12-08T21:11:50.136Z,30.33
2022-12-08T21:14:17.337Z,25.95
2022-12-08T21:16:44.685Z,26.95
2022-12-08T21:19:12.209Z,33.05
2022-12-08T21:21:39.364Z,32.08
2022-12-08T21:24:07.220Z,29.80
2022-12-08T21:26:34.499Z,38.08
2022-12-08T21:29:01.700Z,35.17
2022-12-08T21:31:31.807Z,32.10
2022-12-08T21:34:00.961Z,35.40
2022-12-08T21:36:30.164Z,32.22
2022-12-08T21:39:02.459Z,32.35
2022-12-08T21:41:49.091Z,30.88
2022-12-08T21:44:18.730Z,31.80
2022-12-08T21:46:46.564Z,28.12
2022-12-08T21:49:13.889Z,29.20
2022-12-08T21:51:42.327Z,29.98
2022-12-08T21:54:16.739Z,30.62
2022-12-08T21:56:47.233Z,30.37
2022-12-08T21:59:15.396Z,31.50
2022-12-08T22:01:45.637Z,32.30
2022-12-08T22:04:17.330Z,31.90
2022-12-08T22:06:44.592Z,28.70
2022-12-08T22:09:13.524Z,36.08
2022-12-08T22:11:41.788Z,30.92
2022-12-08T22:14:14.169Z,34.15
2022-12-08T22:16:43.827Z,36.47
2022-12-08T22:19:11.376Z,33.05
2022-12-08T22:21:38.567Z,34.10
2022-12-08T22:24:06.479Z,36.40
2022-12-08T22:26:34.007Z,33.08
2022-12-08T22:29:01.313Z,37.28
2022-12-08T22:31:28.713Z,34.22
2022-12-08T22:33:55.842Z,34.38
2022-12-08T22:36:24.949Z,37.40
2022-12-08T22:38:53.936Z,31.73
2022-12-08T22:41:21.828Z,36.13
2022-12-08T22:43:50.207Z,33.50
2022-12-08T22:46:20.920Z,33.97
2022-12-08T22:48:49.088Z,34.85
2022-12-08T22:51:16.722Z,33.08
2022-12-08T22:53:44.775Z,35.83
2022-12-08T22:56:13.059Z,36.05
2022-12-08T22:58:41.847Z,38.92
2022-12-08T23:01:09.441Z,36.67
2022-12-08T23:03:36.779Z,30.80
2022-12-08T23:06:12.899Z,35.03
2022-12-08T23:08:40.724Z,36.15
2022-12-08T23:11:07.782Z,32.85
2022-12-08T23:13:34.844Z,31.65
2022-12-08T23:16:02.316Z,36.83
2022-12-08T23:18:29.362Z,36.20
2022-12-08T23:20:56.347Z,35.08
2022-12-08T23:23:23.621Z,37.17
2022-12-08T23:25:50.632Z,37.15
2022-12-08T23:28:17.627Z,41.05
2022-12-08T23:30:44.892Z,35.65
2022-12-08T23:33:12.131Z,36.58
2022-12-08T23:35:39.413Z,38.40
2022-12-08T23:38:06.771Z,39.90
2022-12-08T23:40:34.233Z,35.47
2022-12-08T23:43:01.284Z,39.35
2022-12-08T23:45:28.588Z,37.85
2022-12-08T23:47:55.720Z,38.05
2022-12-08T23:50:22.973Z,39.80
2022-12-08T23:52:50.449Z,37.92
2022-12-08T23:55:17.511Z,35.83
2022-12-08T23:57:44.597Z,38.65
